Time;durP1;ratioP1;P1;durP2;ratioP2;P2;SDS_P1;SDS_P2;PMS_P1;PMS_P2;Temp;Humidity;BMP_temperature;BMP_pressure;BME280_temperature;BME280_humidity;BME280_pressure;Samples;Min_cycle;Max_cycle;Signal;HPM_P1;HPM_P2
2023/03/23 00:00:12;;;;;;;9.60;7.07;;;23.80;54.60;;;;;;5041747;28;20444;-74
2023/03/23 00:02:41;;;;;;;9.00;6.00;;;23.80;54.60;;;;;;5041161;28;20498;-73
2023/03/23 00:05:11;;;;;;;8.80;6.10;;;23.80;54.60;;;;;;5037473;28;20543;-74
2023/03/23 00:07:38;;;;;;;6.80;5.40;;;23.70;54.60;;;;;;5036579;28;20456;-75
2023/03/23 00:10:09;;;;;;;6.20;5.27;;;23.80;54.60;;;;;;5037660;28;20552;-73
2023/03/23 00:12:36;;;;;;;5.37;4.50;;;23.70;54.60;;;;;;5040330;28;20465;-76
2023/03/23 00:15:06;;;;;;;5.30;4.13;;;23.70;54.60;;;;;;5046623;28;20440;-76
2023/03/23 00:17:33;;;;;;;5.93;4.90;;;23.70;54.60;;;;;;5048213;28;20474;-73
2023/03/23 00:20:04;;;;;;;5.87;4.10;;;23.70;54.50;;;;;;5039381;28;20494;-73
2023/03/23 00:22:37;;;;;;;6.03;4.37;;;23.70;54.60;;;;;;5053900;28;20908;-77
2023/03/23 00:25:08;;;;;;;4.90;3.83;;;23.70;54.50;;;;;;5053537;28;20442;-73
2023/03/23 00:27:35;;;;;;;4.00;3.60;;;23.70;54.60;;;;;;5052122;28;20431;-80
2023/03/23 00:30:02;;;;;;;3.93;3.30;;;23.70;54.60;;;;;;5018396;28;20466;-73
2023/03/23 00:32:29;;;;;;;4.83;3.90;;;23.70;54.50;;;;;;5034108;28;20923;-73
2023/03/23 00:34:58;;;;;;;4.20;3.10;;;23.70;54.50;;;;;;5043585;28;20882;-72
2023/03/23 00:37:25;;;;;;;3.13;2.80;;;23.70;54.50;;;;;;5054663;28;20516;-73
2023/03/23 00:39:57;;;;;;;3.73;2.90;;;23.70;54.60;;;;;;5055942;28;20466;-73
2023/03/23 00:42:25;;;;;;;4.20;3.20;;;23.70;54.60;;;;;;5028774;28;20458;-73
2023/03/23 00:45:00;;;;;;;2.73;2.53;;;23.70;54.50;;;;;;5033184;28;20899;-72
2023/03/23 00:47:28;;;;;;;5.30;2.77;;;23.70;54.50;;;;;;5059377;28;20486;-72
2023/03/23 00:49:56;;;;;;;2.60;2.40;;;23.70;54.50;;;;;;5035859;28;20458;-72
2023/03/23 00:52:23;;;;;;;2.90;2.67;;;23.70;54.50;;;;;;5055498;28;20556;-75
2023/03/23 00:54:51;;;;;;;2.37;2.17;;;23.70;54.50;;;;;;5053127;28;20460;-73
2023/03/23 00:57:18;;;;;;;3.07;2.60;;;23.70;54.50;;;;;;5053169;28;20450;-73
2023/03/23 00:59:46;;;;;;;2.13;2.00;;;23.70;54.50;;;;;;5036226;28;20447;-73
2023/03/23 01:02:16;;;;;;;3.07;2.67;;;23.70;54.50;;;;;;5030198;28;20489;-73
2023/03/23 01:04:44;;;;;;;2.80;2.33;;;23.70;54.50;;;;;;5038872;28;20938;-73
2023/03/23 01:07:12;;;;;;;2.30;2.10;;;23.70;54.50;;;;;;5029518;28;20803;-72
2023/03/23 01:09:44;;;;;;;2.53;2.10;;;23.70;54.50;;;;;;5036898;28;20780;-72
2023/03/23 01:12:14;;;;;;;2.40;2.20;;;23.60;54.60;;;;;;5036918;28;20492;-72
2023/03/23 01:14:41;;;;;;;2.43;2.13;;;23.60;54.60;;;;;;5051260;28;20938;-73
2023/03/23 01:17:10;;;;;;;2.07;1.93;;;23.60;54.60;;;;;;5046291;28;20460;-72
2023/03/23 01:19:37;;;;;;;2.53;2.20;;;23.60;54.60;;;;;;5060639;28;20533;-72
2023/03/23 01:22:04;;;;;;;3.13;2.90;;;23.60;54.60;;;;;;5053433;28;20446;-73
2023/03/23 01:24:32;;;;;;;3.43;2.20;;;23.60;54.60;;;;;;5052185;28;20565;-78
2023/03/23 01:27:01;;;;;;;2.60;2.33;;;23.60;54.60;;;;;;5050698;28;20455;-79
2023/03/23 01:29:28;;;;;;;2.17;2.07;;;23.60;54.60;;;;;;5062176;28;20448;-72
2023/03/23 01:31:55;;;;;;;2.10;1.90;;;23.60;54.60;;;;;;5036572;28;20454;-72
2023/03/23 01:34:24;;;;;;;2.30;1.83;;;23.60;54.60;;;;;;5051102;28;20464;-73
2023/03/23 01:36:51;;;;;;;2.10;2.00;;;23.60;54.60;;;;;;5034942;28;20451;-72
2023/03/23 01:39:19;;;;;;;1.90;1.80;;;23.60;54.60;;;;;;5048564;28;20514;-78
2023/03/23 01:41:46;;;;;;;2.63;2.00;;;23.60;54.60;;;;;;5048280;28;20506;-72
2023/03/23 01:44:54;;;;;;;2.07;1.87;;;23.60;54.60;;;;;;5039962;28;21300;-72
2023/03/23 01:47:26;;;;;;;2.50;2.40;;;23.60;54.60;;;;;;5053521;28;20846;-72
2023/03/23 01:49:56;;;;;;;2.27;2.10;;;23.60;54.60;;;;;;5045511;28;20458;-76
2023/03/23 01:52:28;;;;;;;2.50;1.70;;;23.60;54.60;;;;;;5052732;28;20461;-72
2023/03/23 01:55:00;;;;;;;2.10;1.90;;;23.60;54.60;;;;;;5031444;28;20457;-72
2023/03/23 01:57:29;;;;;;;1.97;1.87;;;23.60;54.60;;;;;;5017068;28;20440;-72
2023/03/23 02:00:00;;;;;;;2.13;2.03;;;23.60;54.60;;;;;;5051804;28;20461;-71
2023/03/23 02:02:42;;;;;;;1.80;1.70;;;23.60;54.60;;;;;;5054805;28;20922;-75
2023/03/23 02:05:15;;;;;;;2.00;1.80;;;23.60;54.60;;;;;;5034655;28;20477;-72
2023/03/23 02:07:44;;;;;;;1.83;1.73;;;23.60;54.60;;;;;;5036542;28;20494;-72
2023/03/23 02:10:11;;;;;;;2.63;2.00;;;23.60;54.60;;;;;;5025831;28;20506;-71
2023/03/23 02:12:39;;;;;;;2.30;2.10;;;23.60;54.60;;;;;;5039623;28;20533;-71
2023/03/23 02:15:07;;;;;;;2.20;2.10;;;23.60;54.60;;;;;;5035953;28;20466;-72
2023/03/23 02:17:42;;;;;;;1.60;1.50;;;23.60;54.60;;;;;;5038748;28;20883;-72
2023/03/23 02:20:34;;;;;;;2.10;1.90;;;23.60;54.60;;;;;;5051321;28;20492;-72
2023/03/23 02:23:25;;;;;;;1.60;1.50;;;23.60;54.60;;;;;;5052723;28;20448;-73
2023/03/23 02:26:05;;;;;;;2.20;1.87;;;23.60;54.60;;;;;;5053350;28;20481;-78
2023/03/23 02:29:05;;;;;;;2.17;2.03;;;23.50;54.60;;;;;;5035671;28;20526;-73
2023/03/23 02:31:49;;;;;;;1.73;1.63;;;23.50;54.60;;;;;;4997119;28;20572;-72
2023/03/23 02:34:21;;;;;;;2.33;1.53;;;23.50;54.70;;;;;;5057678;28;20458;-75
2023/03/23 02:36:53;;;;;;;2.10;2.00;;;23.50;54.60;;;;;;5039750;28;21029;-73
2023/03/23 02:39:23;;;;;;;2.23;2.03;;;23.50;54.60;;;;;;5062388;28;20545;-72
2023/03/23 02:41:55;;;;;;;2.10;2.00;;;23.50;54.70;;;;;;5059849;28;20454;-73
2023/03/23 02:44:24;;;;;;;1.93;1.80;;;23.50;54.70;;;;;;5055686;28;20564;-77
2023/03/23 02:46:54;;;;;;;1.70;1.60;;;23.50;54.70;;;;;;5034280;28;20459;-76
2023/03/23 02:49:25;;;;;;;2.80;2.20;;;23.50;54.70;;;;;;5034393;28;20462;-72
2023/03/23 02:51:57;;;;;;;2.47;2.27;;;23.50;54.70;;;;;;5037758;28;20502;-73
2023/03/23 02:54:25;;;;;;;2.90;1.90;;;23.50;54.70;;;;;;5046711;28;20465;-73
2023/03/23 02:56:54;;;;;;;2.40;2.20;;;23.50;54.70;;;;;;5039088;28;20462;-76
2023/03/23 02:59:26;;;;;;;2.17;2.07;;;23.50;54.70;;;;;;5035399;28;20472;-72
2023/03/23 03:02:02;;;;;;;2.30;2.10;;;23.50;54.70;;;;;;5038063;28;20470;-74
2023/03/23 03:04:34;;;;;;;2.10;1.90;;;23.50;54.70;;;;;;5036114;28;20478;-73
2023/03/23 03:07:24;;;;;;;2.20;2.00;;;23.50;54.70;;;;;;5038339;28;20961;-78
2023/03/23 03:09:56;;;;;;;2.40;1.90;;;23.50;54.70;;;;;;5047082;28;20819;-73
2023/03/23 03:12:34;;;;;;;1.90;1.80;;;23.50;54.70;;;;;;5053570;28;21027;-74
2023/03/23 03:15:11;;;;;;;2.40;2.30;;;23.50;54.70;;;;;;5034310;28;20459;-73
2023/03/23 03:17:45;;;;;;;1.87;1.77;;;23.50;54.70;;;;;;5036031;28;20529;-73
2023/03/23 03:20:16;;;;;;;1.90;1.80;;;23.50;54.70;;;;;;5028368;28;20494;-78
2023/03/23 03:22:46;;;;;;;2.27;2.00;;;23.50;54.70;;;;;;5037669;28;20466;-78
2023/03/23 03:25:15;;;;;;;2.50;2.30;;;23.50;54.70;;;;;;5039797;28;20502;-81
2023/03/23 03:27:45;;;;;;;1.90;1.80;;;23.50;54.70;;;;;;5037795;28;20468;-82
2023/03/23 03:30:21;;;;;;;2.13;2.03;;;23.50;54.70;;;;;;5029614;28;20827;-75
2023/03/23 03:32:53;;;;;;;2.40;2.10;;;23.40;54.70;;;;;;5026596;28;20451;-74
2023/03/23 03:35:24;;;;;;;3.00;2.00;;;23.40;54.70;;;;;;5035973;28;20842;-76
2023/03/23 03:37:52;;;;;;;2.37;2.17;;;23.40;54.70;;;;;;5051621;28;20463;-72
2023/03/23 03:40:21;;;;;;;2.30;2.10;;;23.40;54.70;;;;;;5036768;28;20962;-77
2023/03/23 03:42:50;;;;;;;2.17;1.83;;;23.40;54.70;;;;;;5023280;28;20467;-74
2023/03/23 03:45:20;;;;;;;2.33;2.13;;;23.40;54.70;;;;;;5034028;28;20503;-80
2023/03/23 03:47:47;;;;;;;2.07;1.97;;;23.40;54.70;;;;;;5040023;28;20481;-72
2023/03/23 03:50:16;;;;;;;2.40;2.30;;;23.40;54.70;;;;;;5016437;28;20451;-77
2023/03/23 03:52:45;;;;;;;2.47;1.90;;;23.40;54.70;;;;;;5031218;28;20529;-74
2023/03/23 03:55:12;;;;;;;2.13;2.03;;;23.40;54.70;;;;;;5053184;28;20984;-72
2023/03/23 03:57:43;;;;;;;1.90;1.80;;;23.40;54.70;;;;;;5036366;28;20470;-76
2023/03/23 04:00:24;;;;;;;2.80;2.60;;;23.40;54.70;;;;;;5047070;28;20454;-73
2023/03/23 04:02:53;;;;;;;1.90;1.80;;;23.40;54.70;;;;;;5034071;28;20472;-76
2023/03/23 04:05:41;;;;;;;2.03;1.93;;;23.40;54.70;;;;;;5039569;28;20481;-72
2023/03/23 04:08:10;;;;;;;2.37;2.23;;;23.40;54.70;;;;;;5054172;28;20871;-72
2023/03/23 04:10:41;;;;;;;2.70;2.50;;;23.40;54.70;;;;;;5037410;28;20837;-75
2023/03/23 04:13:08;;;;;;;2.60;2.40;;;23.40;54.70;;;;;;5033088;28;21285;-73
2023/03/23 04:15:36;;;;;;;2.00;1.90;;;23.40;54.70;;;;;;5054093;28;21327;-72
2023/03/23 04:18:03;;;;;;;1.40;1.30;;;23.40;54.70;;;;;;5034584;28;20505;-73
2023/03/23 04:20:31;;;;;;;2.63;2.43;;;23.40;54.70;;;;;;5032267;28;20491;-72
2023/03/23 04:23:00;;;;;;;2.10;2.00;;;23.40;54.70;;;;;;5039101;28;20961;-72
2023/03/23 04:25:32;;;;;;;2.40;2.20;;;23.30;54.70;;;;;;5037576;28;20478;-71
2023/03/23 04:28:01;;;;;;;2.37;2.17;;;23.40;54.70;;;;;;5053975;28;20464;-72
2023/03/23 04:30:33;;;;;;;2.27;2.17;;;23.40;54.70;;;;;;5034351;28;21779;-72
2023/03/23 04:33:14;;;;;;;2.13;1.93;;;23.30;54.70;;;;;;5034613;28;20454;-72
2023/03/23 04:35:47;;;;;;;2.33;2.13;;;23.30;54.70;;;;;;5036923;28;20545;-72
2023/03/23 04:38:34;;;;;;;2.07;1.93;;;23.30;54.70;;;;;;5039587;28;21204;-72
2023/03/23 04:41:10;;;;;;;2.50;2.30;;;23.30;54.70;;;;;;5034341;28;20463;-72
2023/03/23 04:43:56;;;;;;;2.33;2.23;;;23.30;54.70;;;;;;5039060;28;20442;-76
2023/03/23 04:46:35;;;;;;;1.93;1.83;;;23.30;54.70;;;;;;5030995;28;20497;-72
2023/03/23 04:49:09;;;;;;;1.83;1.73;;;23.30;54.70;;;;;;5038140;28;20470;-72
2023/03/23 04:51:39;;;;;;;2.17;1.97;;;23.30;54.70;;;;;;5029181;28;20462;-72
2023/03/23 04:54:28;;;;;;;2.10;2.00;;;23.30;54.70;;;;;;5020369;28;20561;-72
2023/03/23 04:56:59;;;;;;;2.70;2.50;;;23.30;54.70;;;;;;5020024;28;20466;-76
2023/03/23 04:59:27;;;;;;;2.30;2.20;;;23.30;54.70;;;;;;5025989;28;21002;-74
2023/03/23 05:02:03;;;;;;;1.73;1.63;;;23.30;54.70;;;;;;5028210;28;20471;-74
2023/03/23 05:04:33;;;;;;;1.93;1.83;;;23.30;54.70;;;;;;5036194;28;20499;-75
2023/03/23 05:07:08;;;;;;;2.43;2.33;;;23.30;54.70;;;;;;5030722;28;20888;-71
2023/03/23 05:09:42;;;;;;;1.97;1.87;;;23.30;54.70;;;;;;5023750;28;20523;-78
2023/03/23 05:12:11;;;;;;;2.17;1.97;;;23.30;54.70;;;;;;5043692;28;21274;-76
2023/03/23 05:14:50;;;;;;;1.93;1.83;;;23.30;54.70;;;;;;5022154;28;21022;-72
2023/03/23 05:17:20;;;;;;;2.10;1.90;;;23.30;54.70;;;;;;5034968;28;20483;-73
2023/03/23 05:19:51;;;;;;;2.20;2.10;;;23.30;54.70;;;;;;5030991;28;20562;-74
2023/03/23 05:22:34;;;;;;;1.83;1.73;;;23.30;54.70;;;;;;5033274;28;20481;-77
2023/03/23 05:25:04;;;;;;;2.50;2.30;;;23.30;54.70;;;;;;5028341;28;20486;-78
2023/03/23 05:27:37;;;;;;;1.87;1.70;;;23.30;54.80;;;;;;5056668;28;20458;-73
2023/03/23 05:30:15;;;;;;;2.10;1.93;;;23.30;54.70;;;;;;5049317;28;20544;-72
2023/03/23 05:32:44;;;;;;;2.27;2.10;;;23.30;54.70;;;;;;5057480;28;20451;-72
2023/03/23 05:35:31;;;;;;;2.40;2.20;;;23.30;54.70;;;;;;5032895;28;20989;-73
2023/03/23 05:37:59;;;;;;;2.03;1.93;;;23.30;54.70;;;;;;5053849;28;20519;-73
2023/03/23 05:40:27;;;;;;;1.97;1.87;;;23.30;54.70;;;;;;5031785;28;20471;-72
2023/03/23 05:43:12;;;;;;;2.63;1.90;;;23.30;54.70;;;;;;5039860;28;21376;-71
2023/03/23 05:45:59;;;;;;;2.30;2.10;;;23.40;54.70;;;;;;5050913;28;20472;-76
2023/03/23 05:48:27;;;;;;;1.90;1.80;;;23.40;54.70;;;;;;5051496;28;20854;-72
2023/03/23 05:50:54;;;;;;;2.63;2.43;;;23.40;54.70;;;;;;5027175;28;21115;-79
2023/03/23 05:53:24;;;;;;;2.30;2.10;;;23.40;54.70;;;;;;5032896;28;20557;-75
2023/03/23 05:55:52;;;;;;;2.37;2.27;;;23.50;54.70;;;;;;5026592;28;20455;-74
2023/03/23 05:58:29;;;;;;;2.10;2.00;;;23.50;54.70;;;;;;5045080;28;20471;-80
2023/03/23 06:00:56;;;;;;;3.27;2.10;;;23.50;54.60;;;;;;5031883;28;21024;-78
2023/03/23 06:03:28;;;;;;;2.23;2.13;;;23.50;54.50;;;;;;5034290;28;20460;-76
2023/03/23 06:06:12;;;;;;;1.73;1.63;;;23.50;54.40;;;;;;5027753;28;20467;-78
2023/03/23 06:08:51;;;;;;;3.00;2.80;;;23.50;54.40;;;;;;5039954;28;20458;-78
2023/03/23 06:11:26;;;;;;;2.17;2.07;;;23.50;54.30;;;;;;5040622;28;20446;-80
2023/03/23 06:14:13;;;;;;;2.27;2.07;;;23.50;54.30;;;;;;5041403;28;20462;-81
2023/03/23 06:16:40;;;;;;;2.23;2.13;;;23.50;54.40;;;;;;5044102;28;20451;-81
2023/03/23 06:19:12;;;;;;;2.37;2.17;;;23.50;54.40;;;;;;5054244;28;20557;-80
2023/03/23 06:21:46;;;;;;;3.10;2.80;;;23.50;54.40;;;;;;5057105;28;20851;-81
2023/03/23 06:24:30;;;;;;;3.27;2.63;;;23.50;54.40;;;;;;5043684;28;20469;-81
2023/03/23 06:26:58;;;;;;;2.60;2.47;;;23.40;54.40;;;;;;5033154;28;20522;-80
2023/03/23 06:29:28;;;;;;;3.23;3.00;;;23.40;54.40;;;;;;5030631;28;20815;-82
2023/03/23 06:31:59;;;;;;;4.17;3.37;;;23.40;54.40;;;;;;5043058;28;20484;-81
2023/03/23 06:34:28;;;;;;;3.60;2.80;;;23.40;54.40;;;;;;5033406;28;20573;-81
2023/03/23 06:37:30;;;;;;;3.27;2.67;;;23.40;54.40;;;;;;5044144;28;20450;-80
2023/03/23 06:40:21;;;;;;;3.17;2.93;;;23.40;54.50;;;;;;5036460;28;20470;-80
2023/03/23 06:42:54;;;;;;;2.47;2.27;;;23.40;54.60;;;;;;5024233;28;20513;-80
2023/03/23 06:45:42;;;;;;;2.40;2.20;;;23.40;54.70;;;;;;5048651;28;20973;-80
2023/03/23 06:48:36;;;;;;;2.47;2.27;;;23.40;54.70;;;;;;5019609;28;20458;-80
2023/03/23 06:51:05;;;;;;;2.70;2.10;;;23.40;54.70;;;;;;5035864;28;20462;-81
2023/03/23 06:53:33;;;;;;;2.80;2.40;;;23.40;54.90;;;;;;5037909;28;20455;-80
2023/03/23 06:56:01;;;;;;;2.93;2.20;;;23.40;54.90;;;;;;5047481;28;20469;-80
2023/03/23 06:58:30;;;;;;;3.10;2.80;;;23.40;55.00;;;;;;5027171;28;20990;-80
2023/03/23 07:00:59;;;;;;;3.50;2.50;;;23.40;55.00;;;;;;5034717;28;20509;-80
2023/03/23 07:03:40;;;;;;;3.90;3.60;;;23.40;55.00;;;;;;5051237;28;20449;-80
2023/03/23 07:06:10;;;;;;;3.80;2.53;;;23.40;55.00;;;;;;5054938;28;20481;-80
2023/03/23 07:08:45;;;;;;;2.90;2.70;;;23.40;55.00;;;;;;5048242;28;20465;-81
2023/03/23 07:11:17;;;;;;;3.00;2.33;;;23.40;55.00;;;;;;5029635;28;20582;-81
2023/03/23 07:13:45;;;;;;;2.57;2.37;;;23.40;55.00;;;;;;5034428;28;20451;-81
2023/03/23 07:16:13;;;;;;;2.80;2.33;;;23.40;55.00;;;;;;5031675;28;20558;-81
2023/03/23 07:18:40;;;;;;;2.83;2.50;;;23.40;55.00;;;;;;5055707;28;20516;-81
2023/03/23 07:21:08;;;;;;;3.13;2.83;;;23.40;55.00;;;;;;5034549;28;20543;-80
2023/03/23 07:23:35;;;;;;;2.43;2.23;;;23.40;55.00;;;;;;5028336;28;20467;-81
2023/03/23 07:26:09;;;;;;;4.57;2.70;;;23.40;55.00;;;;;;5039576;28;20978;-81
2023/03/23 07:28:56;;;;;;;2.20;2.00;;;23.40;55.00;;;;;;5031634;28;20470;-81
2023/03/23 07:31:30;;;;;;;3.20;2.90;;;23.40;55.00;;;;;;5020808;28;20447;-81
2023/03/23 07:33:57;;;;;;;2.20;2.00;;;23.40;55.00;;;;;;5045117;28;20463;-81
2023/03/23 07:36:37;;;;;;;2.90;2.13;;;23.40;55.00;;;;;;5039035;28;20491;-81
2023/03/23 07:39:06;;;;;;;3.80;2.33;;;23.50;55.00;;;;;;5044921;28;20473;-81
2023/03/23 07:41:33;;;;;;;3.80;2.73;;;23.50;55.00;;;;;;5036556;28;20466;-81
2023/03/23 07:44:06;;;;;;;2.37;2.17;;;23.50;55.00;;;;;;5040286;28;20525;-81
2023/03/23 07:46:38;;;;;;;3.70;2.37;;;23.50;55.00;;;;;;5033075;28;20481;-81
2023/03/23 07:49:13;;;;;;;2.80;2.60;;;23.50;55.00;;;;;;5046310;28;20463;-81
2023/03/23 07:51:46;;;;;;;2.60;2.40;;;23.50;55.00;;;;;;5036313;28;20553;-81
2023/03/23 07:54:16;;;;;;;3.40;3.10;;;23.50;54.80;;;;;;5042390;28;20470;-75
2023/03/23 07:56:55;;;;;;;3.70;2.87;;;23.60;54.80;;;;;;5031933;28;20859;-75
2023/03/23 07:59:26;;;;;;;3.53;2.13;;;23.60;55.50;;;;;;5034510;28;20828;-72
2023/03/23 08:01:57;;;;;;;4.50;2.60;;;23.60;56.00;;;;;;5049038;28;20458;-73
2023/03/23 08:04:44;;;;;;;3.20;2.43;;;23.60;56.30;;;;;;5055508;28;20453;-73
2023/03/23 08:07:30;;;;;;;3.27;2.63;;;23.70;56.40;;;;;;5052757;28;20543;-73
2023/03/23 08:10:03;;;;;;;2.87;2.67;;;23.70;56.40;;;;;;5054405;28;20463;-73
2023/03/23 08:12:54;;;;;;;2.53;2.13;;;23.70;56.40;;;;;;5034577;28;20468;-74
2023/03/23 08:15:45;;;;;;;2.70;1.70;;;23.70;56.40;;;;;;5046707;28;20447;-73
2023/03/23 08:18:34;;;;;;;4.03;2.40;;;23.80;56.30;;;;;;5007696;28;21151;-74
2023/03/23 08:21:16;;;;;;;2.73;2.47;;;23.80;56.40;;;;;;5029600;28;20496;-74
2023/03/23 08:23:57;;;;;;;4.80;2.80;;;23.80;56.40;;;;;;5037518;28;20827;-75
2023/03/23 08:26:43;;;;;;;2.87;2.67;;;23.80;56.40;;;;;;5047951;28;20892;-74
2023/03/23 08:29:14;;;;;;;4.70;2.50;;;23.80;56.30;;;;;;5048097;28;20478;-73
2023/03/23 08:32:02;;;;;;;3.00;2.23;;;23.90;56.40;;;;;;5047402;28;20547;-74
2023/03/23 08:34:46;;;;;;;3.17;2.30;;;23.90;56.30;;;;;;5041959;28;20462;-73
2023/03/23 08:37:43;;;;;;;5.27;2.67;;;23.90;56.30;;;;;;5029732;28;20454;-73
2023/03/23 08:40:36;;;;;;;3.50;2.23;;;23.90;56.30;;;;;;5036450;28;20963;-72
2023/03/23 08:43:23;;;;;;;3.50;2.23;;;24.00;56.20;;;;;;5052463;28;20532;-72
2023/03/23 08:46:10;;;;;;;2.93;2.73;;;24.00;56.10;;;;;;5045829;28;20834;-73
2023/03/23 08:48:56;;;;;;;2.40;2.20;;;24.00;56.10;;;;;;5047825;28;20551;-72
2023/03/23 08:51:31;;;;;;;2.80;2.30;;;24.00;56.00;;;;;;5042243;28;20463;-73
2023/03/23 08:54:21;;;;;;;4.90;4.40;;;24.00;56.00;;;;;;5042223;28;20961;-74
2023/03/23 08:57:05;;;;;;;2.63;2.43;;;24.00;56.00;;;;;;5066783;28;20947;-73
2023/03/23 08:59:59;;;;;;;4.10;2.57;;;24.10;55.90;;;;;;5042027;28;20469;-73
2023/03/23 09:02:56;;;;;;;2.13;2.03;;;24.10;55.90;;;;;;5046884;28;20867;-75
2023/03/23 09:05:29;;;;;;;2.77;1.97;;;24.10;55.90;;;;;;5037843;28;20480;-74
2023/03/23 09:08:17;;;;;;;4.33;2.13;;;24.10;55.90;;;;;;5045475;28;20498;-74
2023/03/23 09:10:44;;;;;;;3.10;2.80;;;24.10;55.80;;;;;;5033655;28;21155;-72
2023/03/23 09:13:12;;;;;;;3.60;2.50;;;24.10;55.80;;;;;;5039048;28;20487;-73
2023/03/23 09:15:40;;;;;;;2.30;2.03;;;24.10;55.80;;;;;;5053891;28;20456;-75
2023/03/23 09:18:07;;;;;;;2.17;2.00;;;24.10;55.80;;;;;;5044783;28;20461;-73
2023/03/23 09:20:37;;;;;;;2.03;1.93;;;24.10;55.80;;;;;;5044698;28;20846;-73
2023/03/23 09:23:05;;;;;;;5.83;2.57;;;24.10;55.70;;;;;;5048842;28;20470;-72
2023/03/23 09:25:33;;;;;;;2.53;2.20;;;24.10;55.70;;;;;;5044858;28;20548;-73
2023/03/23 09:28:00;;;;;;;3.73;2.60;;;24.10;55.70;;;;;;5051249;28;20481;-74
2023/03/23 09:30:31;;;;;;;2.30;2.07;;;24.10;55.80;;;;;;5044439;28;20459;-74
2023/03/23 09:33:01;;;;;;;2.33;2.20;;;24.10;55.70;;;;;;5050976;28;20472;-74
2023/03/23 09:35:28;;;;;;;1.73;1.63;;;24.10;55.70;;;;;;5045149;28;20454;-73
2023/03/23 09:37:56;;;;;;;4.40;2.90;;;24.10;55.60;;;;;;5048941;28;20446;-81
2023/03/23 09:40:27;;;;;;;2.40;2.20;;;24.10;55.60;;;;;;5073546;28;20484;-81
2023/03/23 09:43:15;;;;;;;5.10;2.43;;;24.20;55.30;;;;;;5054732;28;20520;-82
2023/03/23 09:45:49;;;;;;;2.73;2.30;;;24.10;55.10;;;;;;5044250;28;20496;-81
2023/03/23 09:48:30;;;;;;;2.00;1.90;;;24.10;54.90;;;;;;5052561;28;20462;-71
2023/03/23 09:51:02;;;;;;;2.90;2.10;;;24.10;54.90;;;;;;5052624;28;20466;-71
2023/03/23 09:53:34;;;;;;;3.47;3.17;;;24.10;55.10;;;;;;5037420;28;20537;-70
2023/03/23 09:56:02;;;;;;;2.27;2.13;;;24.10;55.20;;;;;;5051383;28;20573;-70
2023/03/23 09:58:38;;;;;;;2.60;2.30;;;24.10;55.30;;;;;;5052076;28;20878;-71
2023/03/23 10:01:13;;;;;;;2.73;1.93;;;24.10;55.40;;;;;;5048181;28;20543;-70
2023/03/23 10:03:43;;;;;;;2.53;2.33;;;24.10;55.30;;;;;;5047595;28;20543;-69
2023/03/23 10:06:12;;;;;;;2.97;2.50;;;24.10;55.30;;;;;;5045136;28;20576;-70
2023/03/23 10:08:44;;;;;;;2.37;2.27;;;24.10;55.30;;;;;;5063463;28;20447;-70
2023/03/23 10:11:18;;;;;;;2.57;2.37;;;24.20;55.20;;;;;;5055924;28;20483;-68
2023/03/23 10:14:07;;;;;;;2.20;2.00;;;24.20;55.30;;;;;;5044978;28;20521;-69
2023/03/23 10:16:39;;;;;;;3.90;2.20;;;24.20;55.30;;;;;;5047357;28;20458;-72
2023/03/23 10:19:16;;;;;;;3.60;2.30;;;24.20;55.20;;;;;;5036226;28;20514;-69
2023/03/23 10:21:52;;;;;;;1.93;1.70;;;24.20;55.20;;;;;;5051937;28;20543;-69
2023/03/23 10:24:25;;;;;;;2.80;2.10;;;24.30;55.00;;;;;;5052693;28;20466;-70
2023/03/23 10:27:03;;;;;;;2.13;1.93;;;24.30;55.00;;;;;;5057335;28;20469;-69
2023/03/23 10:29:36;;;;;;;2.93;2.00;;;24.30;55.00;;;;;;5049093;28;21410;-68
2023/03/23 10:32:12;;;;;;;2.27;2.07;;;24.30;54.90;;;;;;5058852;28;20447;-68
2023/03/23 10:34:47;;;;;;;2.30;2.10;;;24.30;55.00;;;;;;5039963;28;20459;-68
2023/03/23 10:37:20;;;;;;;1.97;1.87;;;24.30;55.00;;;;;;5050290;28;20925;-67
2023/03/23 10:39:51;;;;;;;3.03;2.27;;;24.40;54.90;;;;;;5042385;28;21007;-68
2023/03/23 10:42:27;;;;;;;2.30;2.03;;;24.40;55.00;;;;;;5052353;28;20541;-69
2023/03/23 10:44:57;;;;;;;3.30;2.53;;;24.40;54.90;;;;;;5056826;28;20487;-68
2023/03/23 10:47:25;;;;;;;2.37;2.07;;;24.40;54.90;;;;;;5049369;28;20470;-68
2023/03/23 10:49:56;;;;;;;2.53;2.33;;;24.50;54.80;;;;;;5048838;28;20465;-69
2023/03/23 10:52:31;;;;;;;1.60;1.50;;;24.50;54.80;;;;;;5047160;28;20876;-67
2023/03/23 10:55:03;;;;;;;4.20;2.70;;;24.60;54.70;;;;;;5050213;28;20459;-68
2023/03/23 10:57:33;;;;;;;3.00;2.80;;;24.60;54.60;;;;;;5056422;28;20497;-68
2023/03/23 11:00:08;;;;;;;1.90;1.80;;;24.60;54.60;;;;;;5044672;28;20449;-67
2023/03/23 11:02:40;;;;;;;2.47;2.30;;;24.60;54.60;;;;;;5049536;28;20472;-68
2023/03/23 11:05:17;;;;;;;2.30;2.10;;;24.60;54.60;;;;;;5066323;28;20548;-69
2023/03/23 11:07:51;;;;;;;2.20;2.00;;;24.60;54.80;;;;;;5036636;28;20475;-69
2023/03/23 11:10:23;;;;;;;3.00;2.27;;;24.60;54.70;;;;;;5047948;28;20530;-70
2023/03/23 11:12:52;;;;;;;2.53;2.30;;;24.60;54.70;;;;;;5052452;28;20855;-70
2023/03/23 11:15:30;;;;;;;2.50;2.30;;;24.60;54.50;;;;;;5047048;28;20455;-70
2023/03/23 11:18:01;;;;;;;2.60;1.90;;;24.60;54.50;;;;;;5047702;28;21448;-71
2023/03/23 11:20:35;;;;;;;1.87;1.77;;;24.60;54.70;;;;;;5046654;28;21329;-72
2023/03/23 11:23:08;;;;;;;2.43;1.90;;;24.60;54.90;;;;;;5034916;28;20538;-72
2023/03/23 11:25:48;;;;;;;2.13;1.93;;;24.60;54.90;;;;;;5053493;28;20504;-71
2023/03/23 11:28:15;;;;;;;1.77;1.67;;;24.60;54.90;;;;;;5059044;28;21182;-69
2023/03/23 11:30:44;;;;;;;2.07;1.97;;;24.60;54.90;;;;;;5033814;28;20451;-71
2023/03/23 11:33:14;;;;;;;2.30;2.20;;;24.60;54.80;;;;;;5049252;28;20453;-70
2023/03/23 11:35:45;;;;;;;1.97;1.87;;;24.60;54.90;;;;;;5049763;28;21254;-70
2023/03/23 11:38:18;;;;;;;2.40;2.23;;;24.60;55.00;;;;;;5046742;28;20565;-71
2023/03/23 11:40:49;;;;;;;3.20;1.97;;;24.60;55.00;;;;;;5051293;28;20449;-71
2023/03/23 11:43:21;;;;;;;2.03;1.70;;;24.60;54.90;;;;;;5038768;28;20883;-70
2023/03/23 11:45:59;;;;;;;2.03;1.93;;;24.60;54.90;;;;;;5048279;28;20884;-71
2023/03/23 11:48:33;;;;;;;2.83;2.37;;;24.70;54.90;;;;;;5044470;28;20463;-71
2023/03/23 11:51:03;;;;;;;2.87;1.83;;;24.60;54.90;;;;;;5036007;28;20542;-71
2023/03/23 11:53:46;;;;;;;3.07;2.00;;;24.60;55.00;;;;;;5044949;28;20463;-71
2023/03/23 11:56:20;;;;;;;2.03;1.70;;;24.60;55.10;;;;;;5037390;28;20439;-71
2023/03/23 11:58:47;;;;;;;1.70;1.60;;;24.60;55.10;;;;;;5058844;28;20446;-72
2023/03/23 12:01:27;;;;;;;2.20;2.00;;;24.70;55.00;;;;;;5042980;28;20466;-71
2023/03/23 12:04:27;;;;;;;3.37;1.80;;;24.70;55.00;;;;;;5046980;28;20468;-72
2023/03/23 12:07:05;;;;;;;2.00;1.90;;;24.70;55.10;;;;;;5036123;28;20483;-71
2023/03/23 12:09:42;;;;;;;2.23;1.90;;;24.70;55.00;;;;;;5043328;28;20547;-71
2023/03/23 12:12:17;;;;;;;1.70;1.60;;;24.70;55.00;;;;;;5053764;28;20526;-73
2023/03/23 12:14:52;;;;;;;1.90;1.80;;;24.70;54.60;;;;;;5060777;28;20443;-72
2023/03/23 12:17:39;;;;;;;1.80;1.70;;;24.70;54.40;;;;;;5049228;28;20452;-72
2023/03/23 12:20:19;;;;;;;1.73;1.63;;;24.60;54.30;;;;;;5063104;28;20498;-76
2023/03/23 12:22:56;;;;;;;2.03;1.83;;;24.60;54.20;;;;;;5048184;28;20461;-72
2023/03/23 12:25:47;;;;;;;1.63;1.53;;;24.60;54.40;;;;;;5048563;28;20853;-74
2023/03/23 12:28:26;;;;;;;1.70;1.60;;;24.60;54.30;;;;;;5042314;28;20506;-76
2023/03/23 12:31:00;;;;;;;2.33;2.17;;;24.60;54.40;;;;;;5046309;28;20508;-73
2023/03/23 12:33:45;;;;;;;1.57;1.47;;;24.60;54.40;;;;;;5049145;28;20946;-74
2023/03/23 12:36:23;;;;;;;1.60;1.50;;;24.60;54.40;;;;;;5044323;28;20452;-76
2023/03/23 12:39:28;;;;;;;2.03;1.70;;;24.60;54.40;;;;;;5037225;28;20869;-75
2023/03/23 12:42:03;;;;;;;1.40;1.30;;;24.50;54.80;;;;;;5041697;28;20544;-70
2023/03/23 12:44:40;;;;;;;2.30;1.90;;;24.50;54.40;;;;;;5051431;28;21979;-72
2023/03/23 12:47:32;;;;;;;2.47;1.50;;;24.60;54.70;;;;;;5048300;28;20544;-71
2023/03/23 12:50:05;;;;;;;1.50;1.40;;;24.60;54.60;;;;;;5039524;28;20474;-71
2023/03/23 12:52:39;;;;;;;2.00;1.63;;;24.60;54.60;;;;;;5050120;28;20461;-72
2023/03/23 12:55:15;;;;;;;1.77;1.67;;;24.70;54.50;;;;;;5047724;28;20454;-70
2023/03/23 12:57:46;;;;;;;1.43;1.40;;;24.70;54.30;;;;;;5042310;28;20454;-74
2023/03/23 13:00:22;;;;;;;4.03;2.50;;;24.80;54.40;;;;;;5047717;28;20497;-71
2023/03/23 13:02:55;;;;;;;1.83;1.73;;;24.70;54.40;;;;;;5051104;28;20556;-71
2023/03/23 13:05:42;;;;;;;2.60;1.77;;;24.70;54.40;;;;;;5044245;28;20456;-70
2023/03/23 13:08:27;;;;;;;1.70;1.60;;;24.70;54.50;;;;;;5052651;28;20473;-72
2023/03/23 13:11:00;;;;;;;2.20;2.00;;;24.60;55.00;;;;;;5050862;28;20454;-67
2023/03/23 13:13:45;;;;;;;2.70;1.87;;;24.60;55.20;;;;;;5043606;28;20532;-67
2023/03/23 13:16:24;;;;;;;2.43;2.23;;;24.60;55.30;;;;;;5039746;28;20485;-71
2023/03/23 13:19:01;;;;;;;2.20;1.43;;;24.70;55.30;;;;;;5050398;28;20559;-69
2023/03/23 13:21:32;;;;;;;2.40;2.07;;;24.70;55.40;;;;;;5034209;28;20487;-68
2023/03/23 13:24:04;;;;;;;4.83;2.30;;;24.70;55.40;;;;;;5048088;28;20893;-70